Terminal Aerodrome Forecast
Issued by NWS

Home | Current Version | Previous Version | Text Only | Print | Product List | Glossary Off
Versions: 1 2 3 4 5 6 7 8 9 10 11 12 13 14 15 16 17 18 19 20 21

000
FTUS43 KGRB 231900 AAA
TAFRHI
TAF AMD
KRHI 231953Z 2320/2418 21005KT 5SM -SHRA BR OVC005
     FM232100 21005KT 5SM BR OVC005
     FM240300 24003KT 3SM BR SCT003
     FM240600 VRB03KT 1/2SM FG VV002
     FM241300 19004KT 1SM BR BKN003
     FM241500 20004KT 3SM BR SCT005 BKN012=

USA.gov is the U.S. government's official web portal to all federal, state and local government web resources and services.